createdAt,value
2019-01-25T07:41:35.691Z,2.66
2019-01-25T07:42:35.921Z,2.58
2019-01-25T07:43:35.732Z,2.02
2019-01-25T07:44:35.612Z,1.61
2019-01-25T07:45:35.614Z,1.36
2019-01-25T07:46:35.565Z,0.86
2019-01-25T07:47:35.550Z,0.57
2019-01-25T07:48:35.704Z,0.39
2019-01-25T07:49:35.567Z,0.10
2019-01-25T07:50:35.521Z,-0.08
2019-01-25T07:51:35.493Z,-0.26
2019-01-25T07:52:35.569Z,-0.08
2019-01-25T07:53:35.487Z,0.30
2019-01-25T07:54:35.505Z,0.94
2019-01-25T07:55:35.466Z,1.06
2019-01-25T07:56:35.494Z,0.71
2019-01-25T07:57:35.499Z,0.43
2019-01-25T07:58:35.424Z,0.25
2019-01-25T07:59:35.420Z,0.00
2019-01-25T08:00:35.389Z,-0.06
2019-01-25T08:01:35.515Z,0.10
2019-01-25T08:02:35.405Z,0.00
2019-01-25T08:03:35.369Z,0.30
2019-01-25T08:04:35.381Z,0.68
2019-01-25T08:05:35.328Z,0.90
2019-01-25T08:06:35.445Z,0.94
2019-01-25T08:07:36.342Z,0.61
2019-01-25T08:08:35.301Z,0.23
2019-01-25T08:09:35.332Z,0.05
2019-01-25T08:10:35.359Z,-0.19
2019-01-25T08:11:35.270Z,-0.33
2019-01-25T08:12:35.340Z,-0.36
2019-01-25T08:13:35.237Z,-0.36
2019-01-25T08:14:35.300Z,-0.15
2019-01-25T08:15:35.253Z,-0.11
2019-01-25T08:16:35.204Z,-0.09
2019-01-25T08:17:35.211Z,-0.08
2019-01-25T08:18:35.237Z,-0.16
2019-01-25T08:19:35.212Z,0.20
2019-01-25T08:20:35.160Z,0.20
2019-01-25T08:21:36.122Z,0.67
2019-01-25T08:22:35.205Z,1.28
2019-01-25T08:23:35.188Z,1.79
2019-01-25T08:24:35.184Z,2.48
2019-01-25T08:25:35.127Z,2.67
2019-01-25T08:26:35.138Z,2.71
2019-01-25T08:27:35.134Z,2.59
2019-01-25T08:28:35.070Z,1.98
2019-01-25T08:29:35.117Z,1.50
2019-01-25T08:30:35.088Z,1.06
2019-01-25T08:31:35.074Z,0.82
2019-01-25T08:32:35.081Z,0.85
2019-01-25T08:33:36.094Z,0.82
2019-01-25T08:34:35.067Z,0.53
2019-01-25T08:35:35.068Z,0.23
2019-01-25T08:36:34.996Z,0.20
2019-01-25T08:37:35.841Z,0.18
2019-01-25T08:40:13.137Z,1.39
2019-01-25T08:41:15.549Z,2.04
2019-01-25T08:42:15.603Z,2.40
2019-01-25T08:43:12.527Z,2.67
2019-01-25T08:44:12.567Z,2.91
2019-01-25T08:45:12.523Z,2.92
2019-01-25T08:47:28.467Z,2.52
2019-01-25T08:48:29.241Z,2.22
2019-01-25T08:49:28.305Z,2.41
2019-01-25T08:50:28.194Z,2.70
2019-01-25T08:51:28.149Z,2.89
2019-01-25T08:52:28.129Z,3.21
2019-01-25T08:53:28.190Z,3.27
2019-01-25T08:54:28.177Z,3.24
2019-01-25T08:55:28.104Z,3.03
2019-01-25T08:56:28.089Z,3.00
2019-01-25T08:57:28.126Z,3.18
2019-01-25T08:58:28.147Z,3.20
2019-01-25T08:59:28.059Z,3.12
2019-01-25T09:00:28.076Z,3.21
2019-01-25T09:01:28.029Z,3.24
2019-01-25T09:02:28.012Z,3.50
2019-01-25T09:03:43.470Z,3.39
2019-01-25T09:04:50.479Z,3.30
2019-01-25T09:05:28.894Z,3.28
2019-01-25T09:06:27.978Z,3.31
2019-01-25T09:07:27.965Z,3.47
2019-01-25T09:08:27.946Z,3.58
2019-01-25T09:09:34.873Z,3.70
2019-01-25T09:10:27.954Z,3.98
2019-01-25T09:11:27.945Z,3.94
2019-01-25T09:12:27.903Z,3.92
2019-01-25T09:13:27.894Z,3.97
2019-01-25T09:14:27.882Z,3.40
2019-01-25T09:15:27.899Z,2.98
2019-01-25T09:16:27.863Z,2.59
2019-01-25T09:17:27.888Z,2.33
2019-01-25T09:18:27.861Z,2.69
2019-01-25T09:19:27.827Z,3.02
2019-01-25T09:20:27.859Z,3.18
2019-01-25T09:21:27.823Z,3.52
2019-01-25T09:22:27.795Z,3.85
2019-01-25T09:23:27.796Z,3.96
2019-01-25T09:24:27.772Z,4.10
2019-01-25T09:25:27.786Z,4.07
2019-01-25T09:26:27.748Z,3.90
2019-01-25T09:27:28.648Z,3.80
2019-01-25T09:28:36.098Z,3.75
2019-01-25T09:29:35.549Z,3.71
2019-01-25T09:30:29.568Z,3.97
2019-01-25T09:31:28.262Z,4.03
2019-01-25T09:32:28.292Z,3.76
2019-01-25T09:33:27.676Z,3.65
2019-01-25T09:34:28.372Z,3.89
2019-01-25T09:35:27.683Z,4.00
2019-01-25T09:36:27.691Z,3.68
2019-01-25T09:37:27.628Z,3.34
2019-01-25T09:38:27.763Z,2.91
2019-01-25T09:39:27.610Z,2.46
2019-01-25T09:40:27.636Z,2.64
2019-01-25T09:41:27.597Z,2.88
2019-01-25T09:42:31.252Z,2.97
2019-01-25T09:43:27.567Z,2.84
2019-01-25T09:44:27.552Z,2.88
2019-01-25T09:45:27.622Z,3.12
2019-01-25T09:46:27.530Z,3.13
2019-01-25T09:47:27.518Z,3.13
2019-01-25T09:48:27.507Z,3.27
2019-01-25T09:49:27.499Z,3.23
2019-01-25T09:50:27.510Z,3.24
2019-01-25T09:51:27.540Z,3.27
2019-01-25T09:52:27.465Z,3.57
2019-01-25T09:53:27.465Z,4.03
2019-01-25T09:54:27.450Z,3.89
2019-01-25T09:55:27.478Z,3.83
2019-01-25T09:56:27.435Z,3.62
2019-01-25T09:57:27.497Z,3.52
2019-01-25T09:58:27.413Z,3.36
2019-01-25T09:59:27.436Z,3.40
2019-01-25T10:00:27.403Z,3.20
2019-01-25T10:01:27.370Z,3.30
2019-01-25T10:02:27.421Z,3.13
2019-01-25T10:03:27.342Z,3.02
2019-01-25T10:04:27.366Z,3.06
2019-01-25T10:05:27.354Z,3.00
2019-01-25T10:06:27.373Z,3.02
2019-01-25T10:07:27.365Z,2.98
2019-01-25T10:08:27.322Z,3.06
2019-01-25T10:09:27.275Z,2.98
2019-01-25T10:10:27.421Z,2.95
2019-01-25T10:11:27.259Z,2.92
2019-01-25T10:12:27.283Z,2.98
2019-01-25T10:13:27.231Z,3.00
2019-01-25T10:14:27.221Z,3.00
2019-01-25T10:15:27.250Z,2.98
2019-01-25T10:16:27.206Z,2.89
2019-01-25T10:17:27.187Z,3.03
2019-01-25T10:18:27.177Z,3.21
2019-01-25T10:19:27.166Z,3.28
2019-01-25T10:20:27.181Z,3.25
2019-01-25T10:21:27.191Z,2.98
2019-01-25T10:22:27.135Z,3.02
2019-01-25T10:23:27.120Z,3.06
2019-01-25T10:24:27.111Z,3.12
2019-01-25T10:25:27.282Z,2.91
2019-01-25T10:26:27.116Z,2.92
2019-01-25T10:27:27.089Z,3.00
2019-01-25T10:28:27.087Z,3.21
2019-01-25T10:29:27.904Z,3.10
2019-01-25T10:30:27.071Z,2.94
2019-01-25T10:31:27.041Z,2.48
2019-01-25T10:32:27.057Z,2.31
2019-01-25T10:33:27.022Z,2.31
2019-01-25T10:34:27.002Z,2.44
2019-01-25T10:35:27.123Z,2.64
2019-01-25T10:36:26.980Z,2.67
2019-01-25T10:37:26.974Z,2.67
2019-01-25T10:38:27.858Z,2.79
2019-01-25T10:39:30.157Z,2.95
2019-01-25T10:40:26.963Z,3.28
2019-01-25T10:41:28.956Z,3.27
2019-01-25T10:42:26.998Z,3.33
2019-01-25T10:43:26.935Z,3.13
2019-01-25T10:44:26.893Z,3.07
2019-01-25T10:45:26.911Z,3.03
2019-01-25T10:46:26.895Z,2.94
2019-01-25T10:47:26.859Z,2.94
2019-01-25T10:48:54.409Z,3.02
2019-01-25T10:49:26.946Z,3.00
2019-01-25T10:50:27.306Z,3.06
2019-01-25T10:51:27.143Z,3.18
2019-01-25T10:52:26.884Z,3.31
2019-01-25T10:53:26.795Z,3.27
2019-01-25T10:54:26.782Z,3.12
2019-01-25T10:55:26.807Z,3.09
2019-01-25T10:56:26.866Z,3.07
2019-01-25T10:57:26.766Z,2.94
2019-01-25T10:58:33.512Z,2.91
2019-01-25T10:59:47.815Z,2.88
2019-01-25T11:31:37.618Z,3.97
